createdAt,value
2018-02-16T00:00:19.532Z,1015.64
2018-02-16T00:01:19.362Z,1015.68
2018-02-16T00:02:19.440Z,1015.70
2018-02-16T00:03:19.309Z,1015.65
2018-02-16T00:04:19.352Z,1015.67
2018-02-16T00:05:19.266Z,1015.65
2018-02-16T00:06:19.264Z,1015.67
2018-02-16T00:07:19.192Z,1015.73
2018-02-16T00:08:19.279Z,1015.77
2018-02-16T00:09:19.129Z,1015.80
2018-02-16T00:10:19.191Z,1015.81
2018-02-16T00:11:19.075Z,1015.80
2018-02-16T00:12:19.101Z,1015.85
2018-02-16T00:13:19.018Z,1015.85
2018-02-16T00:14:19.113Z,1015.90
2018-02-16T00:15:18.959Z,1015.92
2018-02-16T00:16:19.027Z,1015.99
2018-02-16T00:17:18.900Z,1015.97
2018-02-16T00:18:18.939Z,1015.96
2018-02-16T00:19:18.839Z,1016.00
2018-02-16T00:20:18.953Z,1016.02
2018-02-16T00:21:18.782Z,1016.03
2018-02-16T00:22:18.863Z,1016.06
2018-02-16T00:23:18.730Z,1016.02
2018-02-16T00:24:18.772Z,1016.07
2018-02-16T00:25:18.661Z,1016.08
2018-02-16T00:26:18.691Z,1016.07
2018-02-16T00:27:18.607Z,1016.05
2018-02-16T00:28:18.701Z,1016.07
2018-02-16T00:29:18.542Z,1016.08
2018-02-16T00:30:18.611Z,1016.14
2018-02-16T00:31:18.485Z,1016.13
2018-02-16T00:32:18.522Z,1016.18
2018-02-16T00:33:18.429Z,1016.18
2018-02-16T00:34:18.537Z,1016.20
2018-02-16T00:35:18.371Z,1016.26
2018-02-16T00:36:18.448Z,1016.22
2018-02-16T00:37:18.310Z,1016.21
2018-02-16T00:38:18.360Z,1016.28
2018-02-16T00:39:18.251Z,1016.30
2018-02-16T00:40:18.379Z,1016.29
2018-02-16T00:41:18.188Z,1016.30
2018-02-16T00:42:18.287Z,1016.36
2018-02-16T00:43:18.129Z,1016.36
2018-02-16T00:44:18.197Z,1016.31
2018-02-16T00:45:18.073Z,1016.32
2018-02-16T00:46:18.107Z,1016.32
2018-02-16T00:47:18.007Z,1016.33
2018-02-16T00:48:18.123Z,1016.36
2018-02-16T00:49:17.952Z,1016.34
2018-02-16T00:50:18.037Z,1016.38
2018-02-16T00:51:17.894Z,1016.40
2018-02-16T00:52:17.946Z,1016.43
2018-02-16T00:53:17.835Z,1016.40
2018-02-16T00:54:17.957Z,1016.41
2018-02-16T00:55:17.775Z,1016.43
2018-02-16T00:56:17.870Z,1016.45
2018-02-16T00:57:17.714Z,1016.41
2018-02-16T00:58:17.782Z,1016.46
2018-02-16T00:59:17.656Z,1016.45
2018-02-16T01:00:17.795Z,1016.52
2018-02-16T01:01:17.595Z,1016.50
2018-02-16T01:02:17.706Z,1016.53
2018-02-16T01:03:17.539Z,1016.54
2018-02-16T01:04:17.619Z,1016.57
2018-02-16T01:05:17.473Z,1016.52
2018-02-16T01:06:17.533Z,1016.54
2018-02-16T01:07:17.421Z,1016.56
2018-02-16T01:08:17.551Z,1016.55
2018-02-16T01:09:17.356Z,1016.62
2018-02-16T01:10:17.461Z,1016.61
2018-02-16T01:11:17.300Z,1016.62
2018-02-16T01:12:17.370Z,1016.58
2018-02-16T01:13:17.239Z,1016.61
2018-02-16T01:14:17.374Z,1016.62
2018-02-16T01:15:17.186Z,1016.60
2018-02-16T01:16:17.292Z,1016.63
2018-02-16T01:17:17.121Z,1016.61
2018-02-16T01:18:17.208Z,1016.62
2018-02-16T01:19:17.064Z,1016.63
2018-02-16T01:20:17.220Z,1016.65
2018-02-16T01:21:17.002Z,1016.63
2018-02-16T01:22:17.132Z,1016.64
2018-02-16T01:23:16.944Z,1016.62
2018-02-16T01:24:17.045Z,1016.68
2018-02-16T01:25:16.884Z,1016.69
2018-02-16T01:26:16.951Z,1016.71
2018-02-16T01:27:16.822Z,1016.73
2018-02-16T01:28:16.969Z,1016.75
2018-02-16T01:29:16.763Z,1016.71
2018-02-16T01:30:16.878Z,1016.75
2018-02-16T01:31:16.704Z,1016.74
2018-02-16T01:32:16.790Z,1016.76
2018-02-16T01:33:16.644Z,1016.75
2018-02-16T01:34:16.805Z,1016.80
2018-02-16T01:35:16.588Z,1016.77
2018-02-16T01:36:16.715Z,1016.78
2018-02-16T01:37:16.525Z,1016.74
2018-02-16T01:38:16.626Z,1016.78
2018-02-16T01:39:16.465Z,1016.76
2018-02-16T01:40:16.539Z,1016.76
2018-02-16T01:41:16.406Z,1016.77
2018-02-16T01:42:16.549Z,1016.75
2018-02-16T01:43:16.347Z,1016.75
2018-02-16T01:44:16.466Z,1016.73
2018-02-16T01:45:16.293Z,1016.77
2018-02-16T01:46:16.379Z,1016.77
2018-02-16T01:47:16.226Z,1016.80
2018-02-16T01:48:16.390Z,1016.81
2018-02-16T01:49:16.165Z,1016.83
2018-02-16T01:50:16.301Z,1016.82
2018-02-16T01:51:16.107Z,1016.83
2018-02-16T01:52:16.215Z,1016.80
2018-02-16T01:53:16.042Z,1016.83
2018-02-16T01:54:16.229Z,1016.85
2018-02-16T01:55:15.989Z,1016.89
2018-02-16T01:56:16.140Z,1016.93
2018-02-16T01:57:15.927Z,1016.89
2018-02-16T01:58:16.050Z,1016.88
2018-02-16T01:59:15.870Z,1016.88
2018-02-16T02:00:15.962Z,1016.91
2018-02-16T02:01:15.808Z,1016.96
2018-02-16T02:02:15.974Z,1016.90
2018-02-16T02:03:15.749Z,1016.94
2018-02-16T02:04:15.886Z,1016.91
2018-02-16T02:05:15.692Z,1016.93
2018-02-16T02:06:15.696Z,1016.97
2018-02-16T02:07:15.628Z,1016.95
2018-02-16T02:08:15.703Z,1016.99
2018-02-16T02:09:15.567Z,1017.02
2018-02-16T02:10:15.624Z,1017.09
2018-02-16T02:11:15.508Z,1017.00
2018-02-16T02:12:15.533Z,1017.07
2018-02-16T02:13:15.453Z,1017.09
2018-02-16T02:14:15.443Z,1017.07
2018-02-16T02:15:15.395Z,1017.14
2018-02-16T02:16:15.459Z,1017.15
2018-02-16T02:17:15.329Z,1017.11
2018-02-16T02:18:15.369Z,1017.13
2018-02-16T02:19:15.271Z,1017.19
2018-02-16T02:20:15.281Z,1017.15
2018-02-16T02:21:15.209Z,1017.18
2018-02-16T02:22:15.294Z,1017.25
2018-02-16T02:23:15.146Z,1017.23
2018-02-16T02:24:15.208Z,1017.25
2018-02-16T02:25:15.087Z,1017.22
2018-02-16T02:26:15.123Z,1017.21
2018-02-16T02:27:15.027Z,1017.27
2018-02-16T02:28:15.133Z,1017.29
2018-02-16T02:29:14.968Z,1017.29
2018-02-16T02:30:15.044Z,1017.30
2018-02-16T02:31:14.907Z,1017.34
2018-02-16T02:32:14.956Z,1017.36
2018-02-16T02:33:14.849Z,1017.32
2018-02-16T02:34:14.866Z,1017.35
2018-02-16T02:35:14.787Z,1017.39
2018-02-16T02:36:14.880Z,1017.40
2018-02-16T02:37:14.726Z,1017.42
2018-02-16T02:38:14.792Z,1017.41
2018-02-16T02:39:14.670Z,1017.42
2018-02-16T02:40:14.705Z,1017.46
2018-02-16T02:41:14.605Z,1017.49
2018-02-16T02:42:14.716Z,1017.47
2018-02-16T02:43:14.547Z,1017.48
2018-02-16T02:44:14.632Z,1017.48
2018-02-16T02:45:14.484Z,1017.44
2018-02-16T02:46:14.544Z,1017.48
2018-02-16T02:47:14.418Z,1017.48
2018-02-16T02:48:14.453Z,1017.50
2018-02-16T02:49:14.365Z,1017.49
2018-02-16T02:50:14.463Z,1017.48
2018-02-16T02:51:14.305Z,1017.46
2018-02-16T02:52:14.391Z,1017.47
2018-02-16T02:53:14.245Z,1017.47
2018-02-16T02:54:14.290Z,1017.46
2018-02-16T02:55:14.185Z,1017.45
2018-02-16T02:56:14.302Z,1017.49
2018-02-16T02:57:14.125Z,1017.49
2018-02-16T02:58:14.213Z,1017.53
2018-02-16T02:59:14.062Z,1017.55
2018-02-16T03:00:14.128Z,1017.55
2018-02-16T03:01:14.004Z,1017.59
2018-02-16T03:02:14.039Z,1017.63
2018-02-16T03:03:13.948Z,1017.59
2018-02-16T03:04:14.053Z,1017.65
2018-02-16T03:05:13.884Z,1017.70
2018-02-16T03:06:13.962Z,1017.73
2018-02-16T03:07:13.823Z,1017.75
2018-02-16T03:08:13.877Z,1017.77
2018-02-16T03:09:13.766Z,1017.76
2018-02-16T03:10:13.889Z,1017.76
2018-02-16T03:11:13.703Z,1017.72
2018-02-16T03:12:13.802Z,1017.78
2018-02-16T03:13:13.644Z,1017.79
2018-02-16T03:14:13.711Z,1017.80
2018-02-16T03:15:13.580Z,1017.84
2018-02-16T03:16:13.623Z,1017.80
2018-02-16T03:17:13.522Z,1017.79
2018-02-16T03:18:13.638Z,1017.81
2018-02-16T03:19:13.460Z,1017.82
2018-02-16T03:20:13.548Z,1017.83
2018-02-16T03:21:13.399Z,1017.82
2018-02-16T03:22:13.460Z,1017.84
2018-02-16T03:23:13.340Z,1017.87
2018-02-16T03:24:13.474Z,1017.85
2018-02-16T03:25:13.283Z,1017.87
2018-02-16T03:26:13.387Z,1017.85
2018-02-16T03:27:13.219Z,1017.85
2018-02-16T03:28:13.307Z,1017.88
2018-02-16T03:29:13.164Z,1017.86
2018-02-16T03:30:13.211Z,1017.92
2018-02-16T03:31:13.100Z,1017.96
2018-02-16T03:32:13.222Z,1017.94
2018-02-16T03:33:13.040Z,1017.88
2018-02-16T03:34:13.134Z,1017.95
2018-02-16T03:35:12.981Z,1017.91
2018-02-16T03:36:13.046Z,1017.95
2018-02-16T03:37:12.915Z,1017.92
2018-02-16T03:38:13.060Z,1017.88
2018-02-16T03:39:12.859Z,1017.88
2018-02-16T03:40:12.973Z,1017.92
2018-02-16T03:41:12.796Z,1017.93
2018-02-16T03:42:12.884Z,1017.91
2018-02-16T03:43:12.737Z,1017.99
2018-02-16T03:44:12.896Z,1017.96
2018-02-16T03:45:12.673Z,1017.94
2018-02-16T03:46:12.808Z,1017.98
2018-02-16T03:47:12.615Z,1017.99
2018-02-16T03:48:12.723Z,1017.99
2018-02-16T03:49:12.553Z,1018.00
2018-02-16T03:50:12.632Z,1018.03
2018-02-16T03:51:12.508Z,1018.00
2018-02-16T03:52:12.646Z,1018.02
2018-02-16T03:53:12.425Z,1018.02
2018-02-16T03:54:12.557Z,1018.05
2018-02-16T03:55:12.374Z,1018.04
2018-02-16T03:56:12.469Z,1018.06
2018-02-16T03:57:12.314Z,1018.08
2018-02-16T03:58:12.483Z,1018.06
2018-02-16T03:59:12.252Z,1018.12
2018-02-16T04:00:12.396Z,1018.16
2018-02-16T04:01:12.193Z,1018.11
2018-02-16T04:02:12.310Z,1018.18
2018-02-16T04:03:12.133Z,1018.15
2018-02-16T04:04:12.218Z,1018.11
2018-02-16T04:05:12.070Z,1018.16
2018-02-16T04:06:12.235Z,1018.20
2018-02-16T04:07:12.011Z,1018.23
2018-02-16T04:08:12.145Z,1018.22
2018-02-16T04:09:11.951Z,1018.24
2018-02-16T04:10:12.057Z,1018.20
2018-02-16T04:11:11.893Z,1018.23
2018-02-16T04:12:12.071Z,1018.22
2018-02-16T04:13:11.832Z,1018.24
2018-02-16T04:14:11.982Z,1018.25
2018-02-16T04:15:11.770Z,1018.30
2018-02-16T04:16:11.892Z,1018.33
2018-02-16T04:17:11.712Z,1018.35
2018-02-16T04:18:11.805Z,1018.36
2018-02-16T04:19:11.650Z,1018.34
2018-02-16T04:20:11.819Z,1018.38
2018-02-16T04:21:11.586Z,1018.36
2018-02-16T04:22:11.730Z,1018.40
2018-02-16T04:23:11.530Z,1018.39
2018-02-16T04:24:11.641Z,1018.43
2018-02-16T04:25:11.467Z,1018.41
2018-02-16T04:26:11.653Z,1018.46
2018-02-16T04:27:11.405Z,1018.44
2018-02-16T04:28:11.463Z,1018.44
2018-02-16T04:29:11.339Z,1018.44
2018-02-16T04:30:12.399Z,1018.48
2018-02-16T04:31:11.286Z,1018.48
2018-02-16T04:32:11.287Z,1018.49
2018-02-16T04:33:11.228Z,1018.53
2018-02-16T04:34:11.301Z,1018.55
2018-02-16T04:35:11.164Z,1018.56
2018-02-16T04:36:11.213Z,1018.59
2018-02-16T04:37:11.105Z,1018.59
2018-02-16T04:38:11.124Z,1018.59
2018-02-16T04:39:11.045Z,1018.62
2018-02-16T04:40:11.141Z,1018.58
2018-02-16T04:41:10.985Z,1018.61
2018-02-16T04:42:11.050Z,1018.63
2018-02-16T04:43:10.921Z,1018.64
2018-02-16T04:44:10.958Z,1018.63
2018-02-16T04:45:10.863Z,1018.68
2018-02-16T04:46:10.875Z,1018.70
2018-02-16T04:47:10.800Z,1018.70
2018-02-16T04:48:10.889Z,1018.69
2018-02-16T04:49:10.740Z,1018.72
2018-02-16T04:50:10.799Z,1018.75
2018-02-16T04:51:10.678Z,1018.72
2018-02-16T04:52:10.703Z,1018.75
2018-02-16T04:53:10.618Z,1018.76
2018-02-16T04:54:10.722Z,1018.76
2018-02-16T04:55:10.558Z,1018.75
2018-02-16T04:56:10.636Z,1018.78
2018-02-16T04:57:10.490Z,1018.80
2018-02-16T04:58:10.547Z,1018.81
2018-02-16T04:59:10.437Z,1018.80
2018-02-16T05:00:10.459Z,1018.82
2018-02-16T05:01:10.377Z,1018.81
2018-02-16T05:02:10.474Z,1018.82
2018-02-16T05:03:10.310Z,1018.83
2018-02-16T05:04:10.384Z,1018.88
2018-02-16T05:05:10.253Z,1018.86
2018-02-16T05:06:10.293Z,1018.89
2018-02-16T05:07:10.200Z,1018.85
2018-02-16T05:08:10.315Z,1018.89
2018-02-16T05:09:10.134Z,1018.92
2018-02-16T05:10:10.219Z,1018.94
2018-02-16T05:11:10.072Z,1018.97
2018-02-16T05:12:10.131Z,1018.98
2018-02-16T05:13:10.013Z,1019.06
2018-02-16T05:14:10.043Z,1019.01
2018-02-16T05:15:09.950Z,1018.99
2018-02-16T05:16:10.057Z,1019.02
2018-02-16T05:17:09.889Z,1019.03
2018-02-16T05:18:09.968Z,1019.09
2018-02-16T05:19:09.828Z,1019.08
2018-02-16T05:20:09.883Z,1019.09
2018-02-16T05:21:09.769Z,1019.08
2018-02-16T05:22:09.895Z,1019.03
2018-02-16T05:23:09.708Z,1019.04
2018-02-16T05:24:09.804Z,1019.11
2018-02-16T05:25:09.645Z,1019.08
2018-02-16T05:26:09.719Z,1019.07
2018-02-16T05:27:09.583Z,1019.11
2018-02-16T05:28:09.629Z,1019.15
2018-02-16T05:29:09.524Z,1019.13
2018-02-16T05:30:09.640Z,1019.12
2018-02-16T05:31:09.464Z,1019.18
2018-02-16T05:32:09.555Z,1019.16
2018-02-16T05:33:09.403Z,1019.21
2018-02-16T05:34:09.462Z,1019.20
2018-02-16T05:35:09.341Z,1019.24
2018-02-16T05:36:09.479Z,1019.32
2018-02-16T05:37:09.278Z,1019.27
2018-02-16T05:38:09.394Z,1019.33
2018-02-16T05:39:09.219Z,1019.29
2018-02-16T05:40:09.304Z,1019.32
2018-02-16T05:41:09.158Z,1019.40
2018-02-16T05:42:09.215Z,1019.31
2018-02-16T05:43:09.097Z,1019.32
2018-02-16T05:44:09.229Z,1019.33
2018-02-16T05:45:09.036Z,1019.34
2018-02-16T05:46:09.138Z,1019.38
2018-02-16T05:47:08.974Z,1019.43
2018-02-16T05:48:09.056Z,1019.44
2018-02-16T05:49:08.911Z,1019.47
2018-02-16T05:50:09.067Z,1019.41
2018-02-16T05:51:08.851Z,1019.45
2018-02-16T05:52:08.978Z,1019.43
2018-02-16T05:53:08.789Z,1019.40
2018-02-16T05:54:08.888Z,1019.45
2018-02-16T05:55:08.735Z,1019.41
2018-02-16T05:56:08.801Z,1019.43
2018-02-16T05:57:08.667Z,1019.38
2018-02-16T05:58:08.815Z,1019.43
2018-02-16T05:59:08.609Z,1019.47
2018-02-16T06:00:08.649Z,1019.48
2018-02-16T06:01:08.545Z,1019.51
2018-02-16T06:02:08.639Z,1019.53
2018-02-16T06:03:08.485Z,1019.46
2018-02-16T06:04:08.551Z,1019.43
2018-02-16T06:05:08.419Z,1019.43
2018-02-16T06:06:08.565Z,1019.43
2018-02-16T06:07:08.363Z,1019.47
2018-02-16T06:08:08.476Z,1019.48
2018-02-16T06:09:08.302Z,1019.53
2018-02-16T06:10:08.380Z,1019.49
2018-02-16T06:11:08.242Z,1019.53
2018-02-16T06:12:08.402Z,1019.49
2018-02-16T06:13:08.178Z,1019.50
2018-02-16T06:14:08.310Z,1019.54
2018-02-16T06:15:08.119Z,1019.54
2018-02-16T06:16:08.224Z,1019.56
2018-02-16T06:17:08.053Z,1019.56
2018-02-16T06:18:08.137Z,1019.63
2018-02-16T06:19:07.994Z,1019.67
2018-02-16T06:20:08.152Z,1019.70
2018-02-16T06:21:07.931Z,1019.71
2018-02-16T06:22:08.064Z,1019.72
2018-02-16T06:23:07.871Z,1019.74
2018-02-16T06:24:07.971Z,1019.77
2018-02-16T06:25:07.811Z,1019.78
2018-02-16T06:26:07.983Z,1019.81
2018-02-16T06:27:07.751Z,1019.79
2018-02-16T06:28:07.898Z,1019.75
2018-02-16T06:29:07.689Z,1019.76
2018-02-16T06:30:07.813Z,1019.77
2018-02-16T06:31:07.661Z,1019.79
2018-02-16T06:32:07.721Z,1019.82
2018-02-16T06:33:07.563Z,1019.85
2018-02-16T06:34:07.735Z,1019.83
2018-02-16T06:35:07.504Z,1019.95
2018-02-16T06:36:07.648Z,1019.97
2018-02-16T06:37:07.441Z,1019.94
2018-02-16T06:38:07.557Z,1020.01
2018-02-16T06:39:07.379Z,1020.01
2018-02-16T06:40:07.467Z,1020.03
2018-02-16T06:41:07.319Z,1020.05
2018-02-16T06:42:07.483Z,1020.06
2018-02-16T06:43:07.260Z,1020.06
2018-02-16T06:44:07.395Z,1020.12
2018-02-16T06:45:07.201Z,1020.05
2018-02-16T06:46:07.306Z,1020.10
2018-02-16T06:47:07.135Z,1020.09
2018-02-16T06:48:07.318Z,1020.08
2018-02-16T06:49:07.072Z,1020.11
2018-02-16T06:50:07.125Z,1020.13
2018-02-16T06:51:07.013Z,1020.16
2018-02-16T06:52:07.037Z,1020.17
2018-02-16T06:53:06.945Z,1020.16
2018-02-16T06:54:06.951Z,1020.22
2018-02-16T06:55:06.889Z,1020.20
2018-02-16T06:56:06.964Z,1020.22
2018-02-16T06:57:06.837Z,1020.19
2018-02-16T06:58:06.878Z,1020.18
2018-02-16T06:59:06.764Z,1020.23
2018-02-16T07:00:06.788Z,1020.23
2018-02-16T07:01:06.705Z,1020.29
2018-02-16T07:02:06.802Z,1020.27
2018-02-16T07:03:06.641Z,1020.34
2018-02-16T07:04:06.715Z,1020.36
2018-02-16T07:05:06.576Z,1020.37
2018-02-16T07:06:06.625Z,1020.37
2018-02-16T07:07:06.517Z,1020.41
2018-02-16T07:08:06.536Z,1020.41
2018-02-16T07:09:06.456Z,1020.38
2018-02-16T07:10:06.552Z,1020.41
2018-02-16T07:11:06.425Z,1020.40
2018-02-16T07:12:06.503Z,1020.40
2018-02-16T07:13:06.333Z,1020.39
2018-02-16T07:14:06.373Z,1020.43
2018-02-16T07:15:06.273Z,1020.44
2018-02-16T07:16:06.287Z,1020.47
2018-02-16T07:17:06.209Z,1020.48
2018-02-16T07:18:06.300Z,1020.51
2018-02-16T07:19:06.149Z,1020.50
2018-02-16T07:20:06.211Z,1020.53
2018-02-16T07:21:06.093Z,1020.51
2018-02-16T07:22:06.122Z,1020.54
2018-02-16T07:23:06.042Z,1020.59
2018-02-16T07:24:06.136Z,1020.60
2018-02-16T07:25:05.963Z,1020.61
2018-02-16T07:26:06.047Z,1020.55
2018-02-16T07:27:05.902Z,1020.57
2018-02-16T07:28:05.957Z,1020.57
2018-02-16T07:29:05.841Z,1020.55
2018-02-16T07:30:05.870Z,1020.57
2018-02-16T07:31:05.789Z,1020.59
2018-02-16T07:32:05.883Z,1020.63
2018-02-16T07:33:05.721Z,1020.72
2018-02-16T07:34:05.797Z,1020.71
2018-02-16T07:35:05.654Z,1020.75
2018-02-16T07:36:05.707Z,1020.71
2018-02-16T07:37:05.598Z,1020.75
2018-02-16T07:38:05.722Z,1020.79
2018-02-16T07:39:05.533Z,1020.74
2018-02-16T07:40:05.634Z,1020.78
2018-02-16T07:41:05.471Z,1020.80
2018-02-16T07:42:05.546Z,1020.77
2018-02-16T07:43:05.421Z,1020.76
2018-02-16T07:44:05.456Z,1020.82
2018-02-16T07:45:05.351Z,1020.83
2018-02-16T07:46:05.467Z,1020.82
2018-02-16T07:47:05.292Z,1020.86
2018-02-16T07:48:05.382Z,1020.87
2018-02-16T07:49:05.227Z,1020.85
2018-02-16T07:50:05.293Z,1020.83
2018-02-16T07:51:05.167Z,1020.86
2018-02-16T07:52:05.208Z,1020.85
2018-02-16T07:53:05.104Z,1020.89
2018-02-16T07:54:05.216Z,1020.87
2018-02-16T07:55:05.046Z,1020.93
2018-02-16T07:56:05.128Z,1020.99
2018-02-16T07:57:04.981Z,1020.97
2018-02-16T07:58:05.032Z,1021.01
2018-02-16T07:59:04.919Z,1021.06
2018-02-16T08:00:05.055Z,1021.08
2018-02-16T08:01:04.857Z,1021.07
2018-02-16T08:02:04.968Z,1021.12
2018-02-16T08:03:04.799Z,1021.15
2018-02-16T08:04:04.813Z,1021.12
2018-02-16T08:05:04.738Z,1021.16
2018-02-16T08:06:04.788Z,1021.21
2018-02-16T08:07:04.684Z,1021.21
2018-02-16T08:08:04.805Z,1021.19
2018-02-16T08:09:04.616Z,1021.21
2018-02-16T08:10:04.714Z,1021.26
2018-02-16T08:11:04.560Z,1021.30
2018-02-16T08:12:04.625Z,1021.36
2018-02-16T08:13:04.496Z,1021.33
2018-02-16T08:14:04.638Z,1021.41
2018-02-16T08:15:04.443Z,1021.34
2018-02-16T08:16:04.480Z,1021.32
2018-02-16T08:17:04.372Z,1021.34
2018-02-16T08:18:04.462Z,1021.30
2018-02-16T08:19:04.318Z,1021.29
2018-02-16T08:20:04.379Z,1021.32
2018-02-16T08:21:04.249Z,1021.37
2018-02-16T08:22:04.387Z,1021.36
2018-02-16T08:23:04.194Z,1021.40
2018-02-16T08:24:04.300Z,1021.41
2018-02-16T08:25:04.131Z,1021.45
2018-02-16T08:26:04.209Z,1021.45
2018-02-16T08:27:04.072Z,1021.52
2018-02-16T08:28:04.225Z,1021.55
2018-02-16T08:29:04.011Z,1021.50
2018-02-16T08:30:04.135Z,1021.53
2018-02-16T08:31:03.948Z,1021.61
2018-02-16T08:32:03.967Z,1021.59
2018-02-16T08:33:03.892Z,1021.57
2018-02-16T08:34:03.877Z,1021.59
2018-02-16T08:35:03.832Z,1021.63
2018-02-16T08:36:03.977Z,1021.64
2018-02-16T08:37:03.771Z,1021.64
2018-02-16T08:38:03.886Z,1021.57
2018-02-16T08:39:03.709Z,1021.64
2018-02-16T08:40:03.796Z,1021.68
2018-02-16T08:41:03.650Z,1021.72
2018-02-16T08:42:03.812Z,1021.68
2018-02-16T08:43:03.589Z,1021.66
2018-02-16T08:44:03.723Z,1021.75
2018-02-16T08:45:03.528Z,1021.75
2018-02-16T08:46:03.636Z,1021.74
2018-02-16T08:47:03.469Z,1021.79
2018-02-16T08:48:03.545Z,1021.84
2018-02-16T08:49:03.419Z,1021.82
2018-02-16T08:50:03.562Z,1021.83
2018-02-16T08:51:03.348Z,1021.84
2018-02-16T08:52:03.471Z,1021.88
2018-02-16T08:53:03.288Z,1021.91
2018-02-16T08:54:03.382Z,1021.94
2018-02-16T08:55:03.236Z,1021.96
2018-02-16T08:56:03.395Z,1021.93
2018-02-16T08:57:03.170Z,1021.92
2018-02-16T08:58:03.309Z,1021.92
2018-02-16T08:59:03.113Z,1021.89
2018-02-16T09:00:03.222Z,1021.92
2018-02-16T09:01:03.053Z,1021.94
2018-02-16T09:02:03.233Z,1021.95
2018-02-16T09:03:02.991Z,1021.95
2018-02-16T09:04:03.142Z,1021.97
2018-02-16T09:05:02.932Z,1021.94
2018-02-16T09:06:03.060Z,1021.97
2018-02-16T09:07:02.874Z,1021.97
2018-02-16T09:08:02.969Z,1021.92
2018-02-16T09:09:02.814Z,1021.95
2018-02-16T09:10:02.982Z,1021.95
2018-02-16T09:11:02.755Z,1021.92
2018-02-16T09:12:02.796Z,1021.97
2018-02-16T09:13:02.695Z,1022.01
2018-02-16T09:14:02.702Z,1022.04
2018-02-16T09:15:02.636Z,1022.04
2018-02-16T09:16:02.719Z,1022.05
2018-02-16T09:17:02.576Z,1022.05
2018-02-16T09:18:02.629Z,1022.15
2018-02-16T09:19:02.518Z,1022.16
2018-02-16T09:20:02.546Z,1022.12
2018-02-16T09:21:02.456Z,1022.17
2018-02-16T09:22:02.560Z,1022.12
2018-02-16T09:23:02.401Z,1022.16
2018-02-16T09:24:02.469Z,1022.20
2018-02-16T09:25:02.339Z,1022.16
2018-02-16T09:26:02.378Z,1022.29
2018-02-16T09:27:02.283Z,1022.26
2018-02-16T09:28:02.287Z,1022.24
2018-02-16T09:29:02.222Z,1022.31
2018-02-16T09:30:02.300Z,1022.35
2018-02-16T09:31:02.164Z,1022.38
2018-02-16T09:32:02.212Z,1022.51
2018-02-16T09:33:02.104Z,1022.78
2018-02-16T09:34:02.117Z,1022.98
2018-02-16T09:35:02.048Z,1023.03
2018-02-16T09:36:02.146Z,1023.03
2018-02-16T09:37:01.996Z,1023.08
2018-02-16T09:38:02.049Z,1023.14
2018-02-16T09:39:01.947Z,1023.17
2018-02-16T09:40:01.961Z,1023.17
2018-02-16T09:41:01.933Z,1023.27
2018-02-16T09:42:01.975Z,1023.27
2018-02-16T09:43:02.099Z,1023.36
2018-02-16T09:44:01.889Z,1023.32
2018-02-16T09:45:01.802Z,1023.33
2018-02-16T09:46:01.897Z,1023.38
2018-02-16T09:47:01.750Z,1023.32
2018-02-16T09:48:01.824Z,1023.42
2018-02-16T09:49:01.715Z,1023.41
2018-02-16T09:50:01.823Z,1023.46
2018-02-16T09:51:01.669Z,1023.57
2018-02-16T09:52:01.739Z,1023.60
2018-02-16T09:53:01.621Z,1023.56
2018-02-16T09:54:01.751Z,1023.54
2018-02-16T09:55:01.587Z,1023.60
2018-02-16T09:56:01.622Z,1023.55
2018-02-16T09:57:01.549Z,1023.63
2018-02-16T09:58:01.679Z,1023.64
2018-02-16T09:59:01.511Z,1023.67
2018-02-16T10:00:01.591Z,1023.80
2018-02-16T10:01:01.469Z,1023.90
2018-02-16T10:02:01.558Z,1024.15
2018-02-16T10:03:01.449Z,1024.23
2018-02-16T10:04:01.520Z,1024.11
2018-02-16T10:05:01.407Z,1024.05
2018-02-16T10:06:01.532Z,1024.04
2018-02-16T10:07:01.377Z,1024.05
2018-02-16T10:08:01.448Z,1024.06
2018-02-16T10:09:01.396Z,1024.10
2018-02-16T10:10:01.327Z,1024.06
2018-02-16T10:11:01.317Z,1024.15
2018-02-16T10:12:01.468Z,1024.17
2018-02-16T10:13:01.282Z,1024.28
2018-02-16T10:14:01.380Z,1024.26
2018-02-16T10:15:01.285Z,1024.25
2018-02-16T10:16:01.396Z,1024.21
2018-02-16T10:17:01.225Z,1024.14
2018-02-16T10:18:01.308Z,1024.19
2018-02-16T10:19:01.198Z,1024.20
2018-02-16T10:20:01.324Z,1024.23
2018-02-16T10:21:01.168Z,1024.15
2018-02-16T10:22:01.233Z,1024.16
2018-02-16T10:23:01.140Z,1024.13
2018-02-16T10:24:01.246Z,1024.20
2018-02-16T10:25:01.106Z,1024.21
2018-02-16T10:26:01.259Z,1024.24
2018-02-16T10:27:01.086Z,1024.24
2018-02-16T10:28:01.172Z,1024.24
2018-02-16T10:29:01.062Z,1024.25
2018-02-16T10:30:01.224Z,1024.22
2018-02-16T10:31:01.034Z,1024.23
2018-02-16T10:32:01.200Z,1024.26
2018-02-16T10:33:01.010Z,1024.26
2018-02-16T10:34:01.113Z,1024.24
2018-02-16T10:35:00.988Z,1024.21
2018-02-16T10:36:01.125Z,1024.23
2018-02-16T10:37:00.960Z,1024.21
2018-02-16T10:38:01.036Z,1024.25
2018-02-16T10:39:00.933Z,1024.17
2018-02-16T10:40:01.050Z,1024.17
2018-02-16T10:41:00.913Z,1024.14
2018-02-16T10:42:01.065Z,1024.16
2018-02-16T10:43:00.889Z,1024.24
2018-02-16T10:44:00.977Z,1024.20
2018-02-16T10:45:00.862Z,1024.27
2018-02-16T10:46:00.989Z,1024.32
2018-02-16T10:47:00.840Z,1024.23
2018-02-16T10:48:01.005Z,1024.28
2018-02-16T10:49:00.818Z,1024.32
2018-02-16T10:50:00.914Z,1024.37
2018-02-16T10:51:00.791Z,1024.32
2018-02-16T10:52:00.932Z,1024.36
2018-02-16T10:53:00.770Z,1024.41
2018-02-16T10:54:00.942Z,1024.38
2018-02-16T10:55:00.762Z,1024.34
2018-02-16T10:56:00.769Z,1024.38
2018-02-16T10:57:00.727Z,1024.44
2018-02-16T10:58:00.782Z,1024.39
2018-02-16T10:59:00.703Z,1024.41
2018-02-16T11:00:00.794Z,1024.41
2018-02-16T11:01:00.680Z,1024.48
2018-02-16T11:02:00.705Z,1024.45
2018-02-16T11:03:00.661Z,1024.45
2018-02-16T11:04:00.718Z,1024.46
2018-02-16T11:05:00.642Z,1024.42
2018-02-16T11:06:00.724Z,1024.53
2018-02-16T11:07:00.614Z,1024.46
2018-02-16T11:08:00.642Z,1024.42
2018-02-16T11:09:00.591Z,1024.43
2018-02-16T11:10:00.651Z,1024.47
2018-02-16T11:11:00.573Z,1024.48
2018-02-16T11:12:00.666Z,1024.54
2018-02-16T11:13:00.550Z,1024.57
2018-02-16T11:14:00.574Z,1024.61
2018-02-16T11:15:00.530Z,1024.54
2018-02-16T11:16:00.591Z,1024.60
2018-02-16T11:17:00.506Z,1024.57
2018-02-16T11:18:00.600Z,1024.09
2018-02-16T11:19:00.497Z,1024.75
2018-02-16T11:20:00.509Z,1024.41
2018-02-16T11:21:00.469Z,1023.68
2018-02-16T11:22:00.520Z,1024.01
2018-02-16T11:23:00.445Z,1024.65
2018-02-16T11:24:00.536Z,1023.60
2018-02-16T11:25:00.421Z,1024.78
2018-02-16T11:26:00.445Z,1023.71
2018-02-16T11:27:00.399Z,1024.76
2018-02-16T11:28:00.457Z,1024.83
2018-02-16T11:29:00.383Z,1024.77
2018-02-16T11:30:00.469Z,1024.82
2018-02-16T11:31:00.349Z,1024.74
2018-02-16T11:32:00.378Z,1024.77
2018-02-16T11:33:00.324Z,1024.85
2018-02-16T11:34:00.390Z,1024.98
2018-02-16T11:35:00.299Z,1024.91
2018-02-16T11:36:00.303Z,1024.76
2018-02-16T11:37:00.273Z,1024.95
2018-02-16T11:38:00.322Z,1024.67
2018-02-16T11:39:00.252Z,1024.80
2018-02-16T11:40:00.327Z,1024.20
2018-02-16T11:41:00.227Z,1024.83
2018-02-16T11:42:00.237Z,1024.93
2018-02-16T11:43:00.200Z,1024.56
2018-02-16T11:44:00.252Z,1023.72
2018-02-16T11:45:00.173Z,1024.97
2018-02-16T11:46:00.263Z,1025.08
2018-02-16T11:47:00.148Z,1025.18
2018-02-16T11:48:00.171Z,1025.32
2018-02-16T11:49:00.120Z,1025.37
2018-02-16T11:50:00.184Z,1025.32
2018-02-16T11:51:00.100Z,1024.24
2018-02-16T11:52:00.195Z,1023.78
2018-02-16T11:53:00.071Z,1025.32
2018-02-16T11:54:00.106Z,1023.93
2018-02-16T11:55:00.045Z,1023.83
2018-02-16T11:56:00.118Z,1024.11
2018-02-16T11:57:00.025Z,1025.48
2018-02-16T11:58:00.030Z,1025.49
2018-02-16T11:58:59.988Z,1023.82
2018-02-16T12:00:00.048Z,1025.44
2018-02-16T12:00:59.960Z,1025.51
2018-02-16T12:02:00.054Z,1025.27
2018-02-16T12:02:59.930Z,1025.19
2018-02-16T12:03:59.964Z,1025.26
2018-02-16T12:04:59.910Z,1025.14